Time;durP1;ratioP1;P1;durP2;ratioP2;P2;SDS_P1;SDS_P2;PMS_P1;PMS_P2;Temp;Humidity;BMP_temperature;BMP_pressure;BME280_temperature;BME280_humidity;BME280_pressure;Samples;Min_cycle;Max_cycle;Signal;HPM_P1;HPM_P2
2022/03/03 00:01:40;;;;;;;36.70;18.75;;;3.50;99.90;;;;;;5055278;28;20031;-78
2022/03/03 00:04:07;;;;;;;30.85;18.55;;;3.40;99.90;;;;;;5035550;28;20425;-78
2022/03/03 00:06:33;;;;;;;35.30;19.27;;;3.40;99.90;;;;;;5040608;28;20120;-79
2022/03/03 00:08:59;;;;;;;34.92;19.05;;;3.40;99.90;;;;;;5046606;28;20272;-78
2022/03/03 00:11:25;;;;;;;33.47;17.73;;;3.40;99.90;;;;;;5036327;28;20033;-78
2022/03/03 00:13:51;;;;;;;32.22;18.00;;;3.30;99.90;;;;;;5043554;28;20025;-79
2022/03/03 00:16:18;;;;;;;38.60;20.83;;;3.30;99.90;;;;;;5035147;28;20025;-79
2022/03/03 00:18:44;;;;;;;37.97;18.83;;;3.20;99.90;;;;;;5017207;28;20029;-78
2022/03/03 00:21:10;;;;;;;34.45;19.88;;;3.30;99.90;;;;;;5034992;28;20104;-79
2022/03/03 00:23:36;;;;;;;36.97;20.30;;;3.20;99.90;;;;;;5035347;28;20514;-78
2022/03/03 00:26:03;;;;;;;35.60;20.48;;;3.20;99.90;;;;;;5033235;28;20044;-79
2022/03/03 00:28:29;;;;;;;38.72;21.40;;;3.00;99.90;;;;;;5054826;28;20025;-79
2022/03/03 00:30:55;;;;;;;37.75;21.73;;;3.00;99.90;;;;;;5044803;28;20043;-80
2022/03/03 00:33:21;;;;;;;41.88;22.80;;;3.10;99.90;;;;;;5036978;28;20033;-78
2022/03/03 00:35:47;;;;;;;41.85;22.00;;;2.90;99.90;;;;;;5054762;28;20457;-79
2022/03/03 00:38:13;;;;;;;39.58;22.55;;;2.90;99.90;;;;;;5035962;28;20403;-78
2022/03/03 00:40:39;;;;;;;41.65;22.40;;;3.10;99.90;;;;;;5036583;28;20456;-79
2022/03/03 00:43:06;;;;;;;48.67;25.77;;;3.00;99.90;;;;;;5032644;28;20071;-79
2022/03/03 00:45:34;;;;;;;44.30;24.95;;;3.00;99.90;;;;;;5026835;28;20025;-79
2022/03/03 00:48:00;;;;;;;48.70;26.02;;;3.00;99.90;;;;;;5025646;28;20037;-79
2022/03/03 00:50:27;;;;;;;42.92;26.23;;;3.00;99.90;;;;;;5031690;28;20025;-79
2022/03/03 00:52:53;;;;;;;45.33;27.60;;;2.90;99.90;;;;;;5059959;28;20462;-79
2022/03/03 00:55:19;;;;;;;49.95;27.98;;;2.90;99.90;;;;;;5056660;28;20471;-78
2022/03/03 00:57:45;;;;;;;45.15;26.30;;;2.70;99.90;;;;;;5066113;28;20037;-79
2022/03/03 01:00:12;;;;;;;45.03;27.40;;;2.70;99.90;;;;;;5054349;28;20055;-79
2022/03/03 01:02:39;;;;;;;47.85;30.55;;;2.70;99.90;;;;;;5051739;28;20029;-76
2022/03/03 01:05:06;;;;;;;49.33;30.77;;;2.50;99.90;;;;;;5052719;28;20032;-76
2022/03/03 01:07:32;;;;;;;50.58;29.00;;;2.60;99.90;;;;;;5053946;28;20063;-76
2022/03/03 01:09:58;;;;;;;56.75;31.45;;;2.60;99.90;;;;;;5051744;28;20033;-76
2022/03/03 01:12:24;;;;;;;48.50;29.50;;;2.40;99.90;;;;;;5053388;28;20063;-76
2022/03/03 01:14:51;;;;;;;59.95;31.85;;;2.30;99.90;;;;;;5063850;28;20061;-76
2022/03/03 01:17:17;;;;;;;53.47;30.00;;;2.30;99.90;;;;;;5054570;28;20083;-76
2022/03/03 01:19:43;;;;;;;56.25;31.42;;;2.60;99.90;;;;;;5053317;28;20032;-76
2022/03/03 01:22:09;;;;;;;54.67;34.17;;;2.70;99.90;;;;;;5049272;28;20103;-76
2022/03/03 01:24:36;;;;;;;55.40;31.17;;;2.70;99.90;;;;;;5043486;28;20509;-76
2022/03/03 01:27:02;;;;;;;53.60;30.92;;;2.70;99.90;;;;;;5049981;28;20546;-77
2022/03/03 01:29:28;;;;;;;49.40;29.58;;;2.60;99.90;;;;;;5054899;28;20107;-76
2022/03/03 01:31:55;;;;;;;55.60;31.10;;;2.60;99.90;;;;;;5045732;28;20029;-76
2022/03/03 01:34:21;;;;;;;64.82;31.55;;;2.70;99.90;;;;;;5054272;28;20036;-76
2022/03/03 01:36:47;;;;;;;55.67;31.38;;;2.60;99.90;;;;;;5058787;28;20032;-77
2022/03/03 01:39:13;;;;;;;56.40;29.83;;;2.70;99.90;;;;;;5044562;28;20053;-76
2022/03/03 01:41:41;;;;;;;55.25;30.73;;;2.70;99.90;;;;;;5036902;28;20439;-76
2022/03/03 01:44:07;;;;;;;64.80;32.72;;;2.70;99.90;;;;;;5051286;28;20132;-76
2022/03/03 01:46:33;;;;;;;56.83;31.20;;;2.80;99.90;;;;;;5062317;28;20033;-76
2022/03/03 01:48:59;;;;;;;64.75;31.80;;;2.60;99.90;;;;;;5051714;28;20491;-76
2022/03/03 01:51:26;;;;;;;58.90;32.53;;;2.60;99.90;;;;;;5051469;28;20120;-76
2022/03/03 01:53:52;;;;;;;64.00;34.45;;;2.80;99.90;;;;;;5051687;28;20414;-78
2022/03/03 01:56:18;;;;;;;60.30;30.23;;;2.80;99.90;;;;;;5052906;28;20079;-77
2022/03/03 01:58:45;;;;;;;62.72;34.08;;;2.90;99.90;;;;;;5054798;28;20518;-76
2022/03/03 02:01:15;;;;;;;63.97;32.50;;;3.00;99.90;;;;;;5072964;28;20025;-76
2022/03/03 02:03:41;;;;;;;65.70;32.08;;;3.10;99.90;;;;;;5035728;28;20035;-76
2022/03/03 02:06:07;;;;;;;73.45;32.20;;;3.20;99.90;;;;;;5052350;28;20020;-76
2022/03/03 02:08:33;;;;;;;80.00;35.17;;;3.10;99.90;;;;;;5035161;28;20039;-75
2022/03/03 02:10:59;;;;;;;64.53;29.42;;;3.20;99.90;;;;;;5052654;28;20132;-76
2022/03/03 02:13:25;;;;;;;72.32;29.45;;;3.40;99.90;;;;;;5051700;28;20487;-75
2022/03/03 02:15:53;;;;;;;61.10;30.30;;;3.60;99.90;;;;;;5044502;28;20064;-75
2022/03/03 02:18:19;;;;;;;51.35;26.90;;;3.80;99.90;;;;;;5032523;28;20132;-75
2022/03/03 02:20:45;;;;;;;55.35;27.90;;;4.00;99.90;;;;;;5043628;28;20076;-76
2022/03/03 02:23:12;;;;;;;67.63;29.48;;;4.10;99.90;;;;;;5048901;28;20044;-74
2022/03/03 02:25:38;;;;;;;56.70;28.55;;;4.10;99.90;;;;;;5046470;28;20490;-76
2022/03/03 02:28:04;;;;;;;64.25;27.48;;;4.10;99.90;;;;;;5049561;28;20515;-75
2022/03/03 02:30:31;;;;;;;62.20;28.77;;;4.30;99.90;;;;;;5029555;28;20032;-75
2022/03/03 02:33:06;;;;;;;61.40;28.23;;;4.40;99.90;;;;;;5027512;28;20028;-75
2022/03/03 02:35:32;;;;;;;75.00;28.10;;;4.50;99.90;;;;;;5028031;28;20041;-76
2022/03/03 02:37:58;;;;;;;65.72;27.33;;;4.70;99.90;;;;;;5025784;28;20140;-76
2022/03/03 02:40:24;;;;;;;58.80;27.48;;;5.00;99.90;;;;;;5047693;28;20391;-75
2022/03/03 02:42:53;;;;;;;62.58;27.30;;;5.20;99.90;;;;;;5042466;28;20072;-76
2022/03/03 02:45:20;;;;;;;58.08;26.30;;;5.30;99.90;;;;;;5030629;28;20086;-77
2022/03/03 02:47:48;;;;;;;55.13;27.58;;;5.50;99.90;;;;;;5045654;28;20024;-76
2022/03/03 02:50:16;;;;;;;58.60;27.17;;;5.50;99.90;;;;;;5042872;28;20049;-76
2022/03/03 02:52:42;;;;;;;55.63;26.20;;;5.60;99.90;;;;;;5048576;28;20032;-76
2022/03/03 02:55:09;;;;;;;70.43;40.13;;;5.90;99.90;;;;;;5048475;28;20029;-76
2022/03/03 02:57:54;;;;;;;68.45;27.45;;;6.00;99.90;;;;;;5047307;28;20506;-76
2022/03/03 03:00:21;;;;;;;65.97;29.55;;;6.10;99.90;;;;;;5047501;28;20433;-77
2022/03/03 03:02:48;;;;;;;42.70;20.15;;;6.30;99.90;;;;;;5027586;28;20047;-75
2022/03/03 03:05:14;;;;;;;51.70;19.92;;;6.50;99.90;;;;;;5049402;28;20021;-76
2022/03/03 03:07:40;;;;;;;34.05;18.20;;;6.60;99.90;;;;;;5047818;28;20126;-77
2022/03/03 03:10:06;;;;;;;40.40;17.65;;;6.80;99.90;;;;;;5046040;28;20037;-76
2022/03/03 03:12:33;;;;;;;36.28;17.17;;;7.00;99.90;;;;;;5044254;28;20728;-76
2022/03/03 03:14:59;;;;;;;43.72;21.40;;;7.30;99.90;;;;;;5009689;28;20026;-75
2022/03/03 03:17:25;;;;;;;49.42;23.17;;;7.30;99.90;;;;;;5037236;28;20032;-77
2022/03/03 03:19:51;;;;;;;58.15;24.23;;;7.50;99.90;;;;;;5042878;28;20024;-77
2022/03/03 03:22:18;;;;;;;55.47;24.58;;;7.50;99.90;;;;;;5024786;28;20394;-77
2022/03/03 03:24:44;;;;;;;63.67;25.13;;;7.60;99.90;;;;;;5041053;28;20131;-75
2022/03/03 03:27:10;;;;;;;51.85;25.50;;;7.80;99.90;;;;;;5043051;28;20092;-76
2022/03/03 03:29:36;;;;;;;48.35;24.00;;;7.80;99.90;;;;;;5029592;28;20064;-76
2022/03/03 03:32:23;;;;;;;55.03;25.77;;;7.90;99.90;;;;;;5048543;28;20241;-76
2022/03/03 03:34:50;;;;;;;44.35;22.30;;;8.00;99.90;;;;;;5054080;28;20025;-77
2022/03/03 03:37:17;;;;;;;53.80;28.33;;;8.10;99.90;;;;;;5050231;28;20040;-77
2022/03/03 03:39:43;;;;;;;45.75;24.95;;;8.30;99.90;;;;;;5030988;28;20077;-76
2022/03/03 03:42:10;;;;;;;40.10;22.42;;;8.20;99.90;;;;;;5051948;28;20029;-74
2022/03/03 03:44:37;;;;;;;40.72;22.98;;;8.20;99.90;;;;;;5047574;28;20027;-75
2022/03/03 03:47:04;;;;;;;51.58;25.25;;;8.20;99.90;;;;;;5029764;28;20139;-75
2022/03/03 03:49:30;;;;;;;44.20;23.48;;;8.30;99.90;;;;;;5041608;28;20486;-74
2022/03/03 03:51:56;;;;;;;47.92;26.92;;;8.50;99.90;;;;;;5050745;28;20025;-74
2022/03/03 03:54:28;;;;;;;51.58;24.77;;;8.60;99.90;;;;;;5054049;28;20498;-74
2022/03/03 03:56:54;;;;;;;55.92;30.95;;;8.70;99.90;;;;;;5031305;28;20044;-75
2022/03/03 03:59:20;;;;;;;54.35;32.75;;;8.70;99.90;;;;;;5044619;28;20025;-76
2022/03/03 04:01:46;;;;;;;62.92;34.03;;;8.80;99.90;;;;;;5048576;28;20025;-76
2022/03/03 04:04:12;;;;;;;68.05;40.40;;;8.90;99.90;;;;;;5035261;28;20531;-75
2022/03/03 04:06:39;;;;;;;62.03;36.53;;;8.90;99.90;;;;;;5053826;28;20536;-76
2022/03/03 04:09:05;;;;;;;85.85;45.53;;;8.90;99.90;;;;;;5048563;28;20533;-77
2022/03/03 04:11:31;;;;;;;69.35;41.60;;;9.10;99.90;;;;;;5033965;28;20032;-75
2022/03/03 04:13:58;;;;;;;85.43;43.97;;;9.10;99.90;;;;;;5031473;28;20021;-75
2022/03/03 04:16:25;;;;;;;78.93;46.58;;;9.10;99.90;;;;;;5034243;28;20025;-76
2022/03/03 04:18:51;;;;;;;79.72;45.05;;;9.30;99.90;;;;;;5052481;28;20111;-75
2022/03/03 04:21:17;;;;;;;76.45;46.00;;;9.20;99.90;;;;;;5031987;28;20035;-76
2022/03/03 04:23:43;;;;;;;52.78;28.20;;;9.40;99.90;;;;;;5054559;28;20021;-76
2022/03/03 04:26:09;;;;;;;55.80;33.80;;;9.50;99.90;;;;;;5054254;28;20031;-77
2022/03/03 04:29:00;;;;;;;53.97;28.23;;;9.50;99.90;;;;;;5048059;28;20448;-76
2022/03/03 04:31:27;;;;;;;45.78;24.98;;;9.60;99.90;;;;;;5035522;28;20037;-76
2022/03/03 04:33:53;;;;;;;57.63;28.65;;;9.70;99.90;;;;;;5043505;28;20075;-78
2022/03/03 04:36:20;;;;;;;53.13;27.83;;;9.70;99.90;;;;;;5046471;28;20031;-79
2022/03/03 04:38:48;;;;;;;52.13;29.95;;;9.70;99.90;;;;;;5046195;28;20029;-79
2022/03/03 04:41:21;;;;;;;55.97;29.38;;;9.80;99.90;;;;;;5028361;28;20017;-76
2022/03/03 04:43:47;;;;;;;47.13;25.55;;;9.80;99.90;;;;;;5028128;28;20092;-77
2022/03/03 04:46:13;;;;;;;53.63;29.23;;;9.70;97.40;;;;;;5049926;28;20033;-79
2022/03/03 04:48:39;;;;;;;39.28;21.15;;;9.70;98.50;;;;;;5045906;28;20061;-80
2022/03/03 04:51:05;;;;;;;47.67;24.67;;;9.80;96.50;;;;;;5046762;28;20120;-79
2022/03/03 04:53:31;;;;;;;38.50;22.08;;;9.90;96.70;;;;;;5052343;28;20495;-77
2022/03/03 04:55:58;;;;;;;39.00;22.55;;;9.80;95.40;;;;;;5031812;28;20029;-78
2022/03/03 04:58:25;;;;;;;46.53;24.95;;;9.80;94.60;;;;;;5046169;28;20039;-82
2022/03/03 05:00:51;;;;;;;40.65;22.10;;;9.80;96.10;;;;;;5040691;28;20487;-77
2022/03/03 05:03:17;;;;;;;24.20;13.00;;;9.70;94.30;;;;;;5046977;28;20108;-78
2022/03/03 05:06:28;;;;;;;36.47;20.75;;;9.80;90.40;;;;;;5040526;28;20036;-77
2022/03/03 05:08:54;;;;;;;35.78;18.48;;;10.00;93.10;;;;;;5028289;28;20035;-77
2022/03/03 05:11:22;;;;;;;22.75;14.30;;;10.00;93.40;;;;;;5027868;28;20112;-79
2022/03/03 05:13:49;;;;;;;28.52;14.82;;;9.90;92.90;;;;;;5027387;28;20035;-78
2022/03/03 05:16:15;;;;;;;24.45;11.98;;;9.90;93.30;;;;;;5027486;28;20114;-78
2022/03/03 05:18:41;;;;;;;23.95;11.93;;;10.10;87.20;;;;;;5028764;28;20179;-78
2022/03/03 05:21:07;;;;;;;21.92;10.70;;;10.10;88.10;;;;;;5025104;28;20538;-77
2022/03/03 05:23:33;;;;;;;20.25;11.27;;;10.20;87.60;;;;;;5034122;28;20029;-80
2022/03/03 05:25:59;;;;;;;25.73;12.95;;;10.10;85.20;;;;;;5036002;28;20434;-77
2022/03/03 05:28:26;;;;;;;21.10;9.52;;;10.20;86.10;;;;;;5027320;28;20115;-78
2022/03/03 05:30:55;;;;;;;18.77;11.32;;;10.20;83.90;;;;;;5051364;28;20028;-80
2022/03/03 05:33:21;;;;;;;18.50;10.95;;;10.20;86.50;;;;;;5026131;28;20036;-79
2022/03/03 05:35:48;;;;;;;20.92;11.80;;;10.20;87.80;;;;;;5045279;28;20490;-79
2022/03/03 05:38:15;;;;;;;22.17;10.75;;;10.20;85.60;;;;;;5041067;28;20040;-80
2022/03/03 05:40:41;;;;;;;17.98;11.20;;;10.20;86.20;;;;;;5034378;28;20045;-79
2022/03/03 05:43:09;;;;;;;22.08;11.20;;;10.20;85.80;;;;;;5055760;28;20111;-80
2022/03/03 05:45:37;;;;;;;25.17;12.30;;;10.10;84.70;;;;;;5037345;28;20024;-81
2022/03/03 05:48:03;;;;;;;23.95;11.88;;;10.10;83.10;;;;;;5068280;28;20014;-80
2022/03/03 05:50:29;;;;;;;20.23;12.70;;;10.30;85.10;;;;;;5069305;28;20131;-80
2022/03/03 05:52:59;;;;;;;21.95;11.75;;;10.30;82.80;;;;;;5074617;28;20045;-79
2022/03/03 05:55:26;;;;;;;26.50;12.13;;;10.40;82.80;;;;;;5046057;28;20032;-80
2022/03/03 05:57:54;;;;;;;22.90;11.18;;;10.40;79.30;;;;;;5029003;28;20993;-81
2022/03/03 06:00:21;;;;;;;20.73;9.65;;;10.40;77.00;;;;;;5049955;28;20112;-79
2022/03/03 06:02:49;;;;;;;18.90;10.65;;;10.60;76.90;;;;;;5050634;28;20068;-80
2022/03/03 06:05:19;;;;;;;18.90;11.23;;;10.40;79.10;;;;;;5025104;28;20033;-80
2022/03/03 06:07:51;;;;;;;18.60;10.02;;;10.40;77.30;;;;;;5031610;28;20086;-79
2022/03/03 06:10:23;;;;;;;23.50;11.35;;;10.50;77.50;;;;;;5042877;28;20055;-81
2022/03/03 06:12:54;;;;;;;20.85;11.48;;;10.70;76.30;;;;;;5045431;28;20036;-80
2022/03/03 06:15:23;;;;;;;26.88;11.93;;;10.60;75.50;;;;;;5023503;28;20110;-79
2022/03/03 06:17:50;;;;;;;24.98;13.40;;;10.80;77.20;;;;;;5046044;28;20033;-80
2022/03/03 06:20:18;;;;;;;25.80;10.93;;;10.70;78.80;;;;;;5030893;28;20036;-81
2022/03/03 06:22:44;;;;;;;19.05;9.88;;;10.80;79.10;;;;;;5044167;28;20021;-78
2022/03/03 06:25:11;;;;;;;32.47;12.45;;;10.80;78.70;;;;;;5043321;28;20117;-81
2022/03/03 06:27:37;;;;;;;26.90;10.70;;;10.80;76.70;;;;;;5024799;28;20129;-79
2022/03/03 06:30:06;;;;;;;20.75;9.23;;;10.80;76.20;;;;;;5026479;28;20078;-81
2022/03/03 06:32:33;;;;;;;22.25;10.15;;;11.00;75.10;;;;;;5044280;28;20068;-79
2022/03/03 06:34:59;;;;;;;18.23;8.77;;;11.20;74.60;;;;;;5021199;28;20479;-79
2022/03/03 06:37:25;;;;;;;15.10;7.82;;;11.10;71.90;;;;;;5045729;28;20021;-78
2022/03/03 06:39:51;;;;;;;18.35;8.27;;;11.00;70.70;;;;;;5029420;28;20436;-80
2022/03/03 06:42:17;;;;;;;25.10;9.23;;;11.00;72.20;;;;;;5049543;28;20021;-81
2022/03/03 06:44:43;;;;;;;25.55;10.48;;;11.20;69.90;;;;;;5035079;28;20032;-78
2022/03/03 06:47:09;;;;;;;18.50;9.02;;;11.00;68.70;;;;;;5040910;28;20033;-82
2022/03/03 06:49:35;;;;;;;25.73;9.52;;;11.10;68.60;;;;;;5045237;28;20542;-81
2022/03/03 06:52:03;;;;;;;27.80;10.20;;;11.10;64.30;;;;;;5043467;28;20070;-82
2022/03/03 06:54:33;;;;;;;30.48;10.60;;;11.20;65.70;;;;;;5027324;28;20032;-83
2022/03/03 06:56:59;;;;;;;37.75;11.32;;;11.30;63.60;;;;;;5050010;28;20055;-83
2022/03/03 06:59:34;;;;;;;37.45;12.05;;;11.10;63.70;;;;;;5051617;28;20051;-82
2022/03/03 07:02:01;;;;;;;32.70;10.65;;;11.30;64.70;;;;;;5037101;28;20221;-83
2022/03/03 07:04:37;;;;;;;32.60;10.40;;;11.40;64.00;;;;;;5031017;28;20128;-81
2022/03/03 07:07:03;;;;;;;20.80;8.43;;;11.50;64.00;;;;;;5025236;28;20040;-81
2022/03/03 07:09:30;;;;;;;32.10;10.13;;;11.40;62.90;;;;;;5049552;28;20273;-82
2022/03/03 07:11:59;;;;;;;25.08;9.68;;;11.40;63.10;;;;;;5049564;28;20223;-80
2022/03/03 07:14:25;;;;;;;26.30;9.70;;;11.60;63.40;;;;;;5052660;28;20021;-80
2022/03/03 07:16:54;;;;;;;20.70;10.15;;;11.50;65.30;;;;;;5044352;28;20025;-80
2022/03/03 07:19:26;;;;;;;21.75;10.07;;;11.50;66.20;;;;;;5036147;28;20829;-81
2022/03/03 07:22:07;;;;;;;26.85;8.57;;;11.60;66.80;;;;;;5040013;28;20463;-81
2022/03/03 07:24:44;;;;;;;24.85;8.70;;;11.80;61.70;;;;;;5049290;28;20029;-81
2022/03/03 07:27:18;;;;;;;25.02;9.23;;;11.60;63.60;;;;;;5037926;28;20022;-80
2022/03/03 07:29:49;;;;;;;21.73;8.70;;;11.60;61.70;;;;;;5035147;28;20028;-81
2022/03/03 07:32:18;;;;;;;26.27;8.35;;;11.80;60.00;;;;;;5055405;28;20490;-80
2022/03/03 07:34:49;;;;;;;20.15;9.60;;;11.80;59.80;;;;;;5033385;28;20086;-82
2022/03/03 07:37:18;;;;;;;15.52;8.77;;;11.90;59.50;;;;;;5035342;28;20056;-82
2022/03/03 07:39:45;;;;;;;15.68;8.18;;;11.90;60.50;;;;;;5057588;28;20124;-81
2022/03/03 07:42:17;;;;;;;19.20;8.93;;;12.10;59.90;;;;;;5050119;28;20029;-81
2022/03/03 07:44:45;;;;;;;18.80;8.07;;;12.40;58.20;;;;;;5046558;28;20494;-81
2022/03/03 07:47:11;;;;;;;20.98;8.65;;;12.40;57.90;;;;;;5022260;28;20562;-81
2022/03/03 07:49:40;;;;;;;18.02;8.02;;;12.50;56.80;;;;;;5028262;28;20026;-81
2022/03/03 07:52:09;;;;;;;15.05;7.07;;;12.40;55.50;;;;;;5055737;28;20431;-81
2022/03/03 07:54:38;;;;;;;17.08;9.48;;;12.30;55.20;;;;;;5033118;28;20036;-80
2022/03/03 07:57:08;;;;;;;18.15;9.35;;;12.10;57.50;;;;;;5032607;28;20024;-81
2022/03/03 07:59:36;;;;;;;19.65;9.63;;;12.00;58.70;;;;;;5051071;28;20539;-81
2022/03/03 08:02:06;;;;;;;21.83;11.18;;;12.10;59.00;;;;;;5029638;28;20514;-78
2022/03/03 08:04:33;;;;;;;20.63;10.18;;;12.30;58.50;;;;;;5054681;28;20021;-80
2022/03/03 08:07:09;;;;;;;19.38;10.40;;;12.30;58.30;;;;;;5039670;28;20020;-79
2022/03/03 08:09:38;;;;;;;15.27;9.32;;;12.20;58.30;;;;;;5037290;28;20075;-81
2022/03/03 08:12:07;;;;;;;16.38;10.25;;;12.10;58.70;;;;;;5031719;28;20442;-81
2022/03/03 08:14:35;;;;;;;20.67;13.02;;;12.20;58.30;;;;;;5030130;28;20073;-81
2022/03/03 08:17:01;;;;;;;20.92;10.68;;;12.50;57.20;;;;;;5032120;28;20116;-79
2022/03/03 08:19:29;;;;;;;19.13;11.45;;;12.40;56.50;;;;;;5032079;28;20483;-79
2022/03/03 08:21:55;;;;;;;19.70;10.65;;;12.00;56.30;;;;;;5051274;28;20480;-80
2022/03/03 08:24:21;;;;;;;24.75;12.52;;;12.00;57.50;;;;;;5059072;28;20035;-81
2022/03/03 08:26:47;;;;;;;15.48;10.10;;;12.10;57.00;;;;;;5057420;28;20032;-77
2022/03/03 08:29:14;;;;;;;17.92;9.60;;;12.10;56.50;;;;;;5062448;28;20033;-78
2022/03/03 08:31:50;;;;;;;18.00;10.70;;;12.00;55.50;;;;;;5053675;28;20029;-80
2022/03/03 08:34:43;;;;;;;18.90;11.70;;;12.10;55.30;;;;;;5052633;28;20040;-80
2022/03/03 08:37:18;;;;;;;18.92;9.85;;;12.30;53.90;;;;;;5034802;28;20024;-80
2022/03/03 08:39:46;;;;;;;18.50;10.30;;;12.10;53.80;;;;;;5023303;28;20043;-81
2022/03/03 08:42:16;;;;;;;17.98;10.48;;;12.30;53.20;;;;;;5026634;28;20021;-79
2022/03/03 08:44:43;;;;;;;17.83;10.63;;;12.00;52.30;;;;;;5026703;28;20025;-80
2022/03/03 08:47:13;;;;;;;19.70;10.00;;;12.10;51.70;;;;;;5030769;28;20136;-79
2022/03/03 08:49:44;;;;;;;16.27;11.15;;;12.30;51.50;;;;;;5033018;28;20534;-79
2022/03/03 08:53:00;;;;;;;18.52;10.85;;;12.40;50.60;;;;;;5015600;28;20038;-78
2022/03/03 08:56:23;;;;;;;;;;;;;;;;;;;;;
2022/03/03 09:01:51;;;;;;;13.48;8.68;;;12.60;49.90;;;;;;5017819;28;20395;-80
2022/03/03 09:04:24;;;;;;;16.80;9.13;;;12.70;50.60;;;;;;5024742;28;20459;-79
2022/03/03 09:06:50;;;;;;;13.52;7.85;;;;;;;;;;5008996;28;20110;-74
2022/03/03 09:09:23;;;;;;;15.10;7.82;;;;;;;;;;5025415;28;20114;-76
2022/03/03 09:11:50;;;;;;;15.02;8.52;;;;;;;;;;5028219;28;20021;-76
2022/03/03 09:14:16;;;;;;;15.38;8.25;;;;;;;;;;5013892;28;20048;-77
2022/03/03 09:16:43;;;;;;;17.70;8.82;;;;;;;;;;5029910;28;20025;-76
2022/03/03 09:19:09;;;;;;;14.50;9.20;;;;;;;;;;5010736;28;20128;-76
2022/03/03 09:21:35;;;;;;;15.40;9.43;;;;;;;;;;5029977;28;20091;-77
2022/03/03 09:24:02;;;;;;;16.50;9.98;;;;;;;;;;5025095;28;20022;-76
2022/03/03 09:26:28;;;;;;;15.77;9.20;;;;;;;;;;5027442;28;20029;-76
2022/03/03 09:28:55;;;;;;;15.82;8.63;;;;;;;;;;5011800;28;20060;-76
2022/03/03 09:31:21;;;;;;;18.70;9.43;;;;;;;;;;5032376;28;20032;-76
2022/03/03 09:33:50;;;;;;;15.80;8.27;;;;;;;;;;5035233;28;20021;-76
2022/03/03 09:36:18;;;;;;;15.10;9.00;;;;;;;;;;5031016;28;20559;-77
2022/03/03 09:38:44;;;;;;;12.02;7.97;;;;;;;;;;5021665;28;20053;-75
2022/03/03 09:41:11;;;;;;;15.25;8.80;;;;;;;;;;5047416;28;20021;-76
2022/03/03 09:43:37;;;;;;;21.77;10.60;;;;;;;;;;5052679;28;20067;-78
2022/03/03 09:46:04;;;;;;;17.75;10.93;;;;;;;;;;5044749;28;20112;-81
2022/03/03 09:48:32;;;;;;;19.52;10.30;;;;;;;;;;5049126;28;20032;-78
2022/03/03 09:50:58;;;;;;;18.05;10.13;;;;;;;;;;5048175;28;20019;-77
2022/03/03 09:53:24;;;;;;;15.23;8.75;;;;;;;;;;5044912;28;20037;-77
2022/03/03 09:55:51;;;;;;;14.48;9.35;;;;;;;;;;5033680;28;20482;-78
2022/03/03 09:58:17;;;;;;;36.33;20.55;;;;;;;;;;5048150;28;20069;-75
2022/03/03 10:00:44;;;;;;;27.60;11.93;;;;;;;;;;5029893;28;20251;-79
2022/03/03 10:03:13;;;;;;;16.67;9.70;;;;;;;;;;5048735;28;20095;-74
2022/03/03 10:05:50;;;;;;;14.27;9.98;;;;;;;;;;5022819;28;20021;-78
2022/03/03 10:08:20;;;;;;;19.92;10.35;;;;;;;;;;5036643;28;20025;-79
2022/03/03 10:10:48;;;;;;;18.85;11.48;;;;;;;;;;5046455;28;20124;-80
2022/03/03 10:13:16;;;;;;;20.20;11.63;;;;;;;;;;5033035;28;20025;-76
2022/03/03 10:15:43;;;;;;;19.60;11.82;;;;;;;;;;5043511;28;20103;-76
2022/03/03 10:18:13;;;;;;;18.05;11.95;;;;;;;;;;5049836;28;20098;-73
2022/03/03 10:20:53;;;;;;;20.15;12.73;;;;;;;;;;5043250;28;20080;-77
2022/03/03 10:23:40;;;;;;;13.98;10.27;;;;;;;;;;5059692;28;20016;-75
2022/03/03 10:26:08;;;;;;;19.70;12.57;;;;;;;;;;5035880;28;20029;-75
2022/03/03 10:28:36;;;;;;;21.65;12.85;;;;;;;;;;5038726;28;20412;-75
2022/03/03 10:31:41;;;;;;;21.85;11.95;;;;;;;;;;5033675;28;20081;-76
2022/03/03 10:34:17;;;;;;;16.88;10.32;;;;;;;;;;5030750;28;20029;-78
2022/03/03 10:36:44;;;;;;;26.73;15.25;;;;;;;;;;5050259;28;20103;-76
2022/03/03 10:39:10;;;;;;;18.88;12.25;;;;;;;;;;5047170;28;20037;-75
2022/03/03 10:41:40;;;;;;;21.63;12.70;;;;;;;;;;5049193;28;20128;-78
2022/03/03 10:44:10;;;;;;;20.60;12.23;;;;;;;;;;5031765;28;20020;-78
2022/03/03 10:46:38;;;;;;;16.48;11.75;;;;;;;;;;5041436;28;20035;-74
2022/03/03 10:49:24;;;;;;;17.08;11.23;;;;;;;;;;5051990;28;20040;-73
2022/03/03 10:51:50;;;;;;;19.95;11.85;;;;;;;;;;5049825;28;20025;-76
2022/03/03 10:54:17;;;;;;;25.75;14.18;;;;;;;;;;5035049;28;20115;-75
2022/03/03 10:56:44;;;;;;;28.40;16.45;;;;;;;;;;5059261;28;20036;-75
2022/03/03 10:59:17;;;;;;;27.45;15.15;;;;;;;;;;5058886;28;20024;-75
2022/03/03 11:01:45;;;;;;;24.98;15.90;;;;;;;;;;5067256;28;20040;-74
2022/03/03 11:04:18;;;;;;;23.73;15.70;;;;;;;;;;5048238;28;20451;-74
2022/03/03 11:07:07;;;;;;;21.48;13.63;;;;;;;;;;5045084;28;20033;-75
2022/03/03 11:09:36;;;;;;;23.80;14.70;;;;;;;;;;5064272;28;20060;-73
2022/03/03 11:12:08;;;;;;;22.30;12.88;;;;;;;;;;5063724;28;20032;-78
2022/03/03 11:14:34;;;;;;;22.52;14.52;;;;;;;;;;5065694;28;20039;-76
2022/03/03 11:17:02;;;;;;;21.42;13.00;;;;;;;;;;5044993;28;20029;-76
2022/03/03 11:19:29;;;;;;;28.67;14.43;;;;;;;;;;5061075;28;20573;-75
2022/03/03 11:21:55;;;;;;;20.30;12.63;;;;;;;;;;5038601;28;20025;-73
2022/03/03 11:24:25;;;;;;;26.15;14.95;;;;;;;;;;5048110;28;20017;-75
2022/03/03 11:27:19;;;;;;;27.42;16.50;;;;;;;;;;5057037;28;20024;-73
2022/03/03 11:30:04;;;;;;;45.72;18.40;;;;;;;;;;5055578;28;20028;-74
2022/03/03 11:32:56;;;;;;;26.98;16.23;;;;;;;;;;5054424;28;20021;-75
2022/03/03 11:35:26;;;;;;;22.77;13.88;;;;;;;;;;5015469;28;20083;-76
2022/03/03 11:37:56;;;;;;;27.35;14.80;;;;;;;;;;5055097;28;20091;-76
2022/03/03 11:43:30;;;;;;;26.13;15.68;;;;;;;;;;5041079;28;20025;-77
2022/03/03 11:46:04;;;;;;;27.63;15.18;;;;;;;;;;5037555;28;20131;-80
2022/03/03 11:48:43;;;;;;;27.25;15.48;;;;;;;;;;5037079;28;20025;-77
2022/03/03 11:51:29;;;;;;;25.73;15.35;;;;;;;;;;5049470;28;20041;-80
2022/03/03 11:54:06;;;;;;;24.23;14.48;;;;;;;;;;5034979;28;20052;-74
2022/03/03 11:56:33;;;;;;;22.55;14.88;;;;;;;;;;5032058;28;21462;-78
2022/03/03 11:59:17;;;;;;;24.17;14.93;;;;;;;;;;5030292;28;20120;-77
2022/03/03 12:01:55;;;;;;;26.90;15.00;;;;;;;;;;5029700;28;20023;-75
2022/03/03 12:04:26;;;;;;;29.45;14.68;;;;;;;;;;5031442;28;20029;-76
2022/03/03 12:07:21;;;;;;;28.80;14.85;;;;;;;;;;5031466;28;20036;-77
2022/03/03 12:09:49;;;;;;;25.75;15.30;;;;;;;;;;5033281;28;20052;-75
2022/03/03 12:12:19;;;;;;;26.05;14.73;;;;;;;;;;5037252;28;20124;-76
2022/03/03 12:14:49;;;;;;;22.58;13.55;;;;;;;;;;5062434;28;20103;-76
2022/03/03 12:17:34;;;;;;;20.52;13.10;;;;;;;;;;5055287;28;20067;-75
2022/03/03 12:20:20;;;;;;;30.95;17.52;;;;;;;;;;5055702;28;20025;-75
2022/03/03 12:23:00;;;;;;;24.67;15.10;;;;;;;;;;5033464;28;20432;-76
2022/03/03 12:25:45;;;;;;;24.45;14.65;;;;;;;;;;5046247;28;20049;-76
2022/03/03 12:28:15;;;;;;;29.50;13.70;;;;;;;;;;5052584;28;20029;-78
2022/03/03 12:30:45;;;;;;;23.70;13.90;;;;;;;;;;5048814;28;20473;-79
2022/03/03 12:33:27;;;;;;;27.77;13.57;;;;;;;;;;5042318;28;20013;-78
2022/03/03 12:36:04;;;;;;;26.50;13.82;;;;;;;;;;5033176;28;20025;-76
2022/03/03 12:38:31;;;;;;;23.20;12.82;;;;;;;;;;5041735;28;20399;-77
2022/03/03 12:40:57;;;;;;;26.08;14.90;;;;;;;;;;5036171;28;20156;-75
2022/03/03 12:43:24;;;;;;;28.60;14.57;;;;;;;;;;5032382;28;20025;-76
2022/03/03 12:45:51;;;;;;;29.52;13.90;;;;;;;;;;5049745;28;20028;-76
2022/03/03 12:48:30;;;;;;;29.23;15.70;;;;;;;;;;5043234;28;20021;-76
2022/03/03 12:51:02;;;;;;;31.08;16.60;;;;;;;;;;5052279;28;20083;-75
2022/03/03 12:53:33;;;;;;;28.00;14.40;;;;;;;;;;5033437;28;20387;-77
2022/03/03 12:56:00;;;;;;;41.28;22.90;;;;;;;;;;5035424;28;20075;-76
2022/03/03 12:58:30;;;;;;;69.78;41.38;;;;;;;;;;5050517;28;20116;-77
2022/03/03 13:00:56;;;;;;;50.17;26.35;;;;;;;;;;5054080;28;20036;-75
2022/03/03 13:03:24;;;;;;;54.45;29.38;;;;;;;;;;5053783;28;20016;-75
2022/03/03 13:05:58;;;;;;;67.55;38.40;;;;;;;;;;5051889;28;20356;-75
2022/03/03 13:08:27;;;;;;;59.55;32.15;;;;;;;;;;5053014;28;20057;-76
2022/03/03 13:10:54;;;;;;;39.00;20.77;;;;;;;;;;5052813;28;20100;-77
2022/03/03 13:13:21;;;;;;;44.13;20.60;;;;;;;;;;5055298;28;20029;-76
2022/03/03 13:15:48;;;;;;;43.25;21.48;;;;;;;;;;5044939;28;20039;-76
2022/03/03 13:18:18;;;;;;;44.38;21.92;;;;;;;;;;5050520;28;20118;-76
2022/03/03 13:20:46;;;;;;;39.85;20.85;;;;;;;;;;5066493;28;20029;-76
2022/03/03 13:23:13;;;;;;;41.78;21.73;;;;;;;;;;5035875;28;20036;-76